DAL3866 KBOI-KSEA
Flight info
| Callsign | DAL3866 |
|---|---|
| Flight time | 1h 7m |
| Altitude | 34000 |
| Route | OLAAH PREIS OKINY PDT CHINS5 |
| Aircraft | A320/M-SDE3FGHIRWY/LB1 |
Departure
| Time | 2026-05-06 20:51 |
|---|---|
| Airport | Boise Air Terminal/Gowen Field (KBOI) |
Arrival
| Time | 2026-05-06 21:59 |
|---|---|
| Airport | Seattle–Tacoma International Airport (KSEA) |
| Time | Latitude | Longitude | Altitude | Speed | Heading |
|---|---|---|---|---|---|
| 2026-05-06 20:26 | 43.56764 | -116.21917 | 2882 ft | 0 kts | 197° |
| 2026-05-06 20:42 | 43.56765 | -116.21916 | 2881 ft | 1 kts | 197° |
| 2026-05-06 20:42 | 43.56788 | -116.21906 | 2881 ft | 4 kts | 197° |
| 2026-05-06 20:42 | 43.56805 | -116.21899 | 2881 ft | 4 kts | 197° |
| 2026-05-06 20:43 | 43.56821 | -116.21892 | 2881 ft | 0 kts | 197° |
| 2026-05-06 20:43 | 43.56815 | -116.21885 | 2881 ft | 4 kts | 120° |
| 2026-05-06 20:43 | 43.56813 | -116.21853 | 2881 ft | 4 kts | 90° |
| 2026-05-06 20:43 | 43.56812 | -116.21816 | 2881 ft | 4 kts | 99° |
| 2026-05-06 20:44 | 43.56802 | -116.21786 | 2881 ft | 1 kts | 121° |
| 2026-05-06 20:44 | 43.56802 | -116.21785 | 2881 ft | 0 kts | 120° |
| 2026-05-06 20:45 | 43.56801 | -116.21783 | 2881 ft | 1 kts | 121° |
| 2026-05-06 20:46 | 43.56786 | -116.21767 | 2881 ft | 4 kts | 152° |
| 2026-05-06 20:46 | 43.56746 | -116.21759 | 2881 ft | 8 kts | 175° |
| 2026-05-06 20:46 | 43.56680 | -116.21752 | 2881 ft | 11 kts | 175° |
| 2026-05-06 20:46 | 43.56607 | -116.21742 | 2881 ft | 10 kts | 174° |
| 2026-05-06 20:47 | 43.56546 | -116.21734 | 2881 ft | 8 kts | 175° |
| 2026-05-06 20:47 | 43.56503 | -116.21746 | 2881 ft | 5 kts | 223° |
| 2026-05-06 20:47 | 43.56496 | -116.21787 | 2881 ft | 4 kts | 273° |
| 2026-05-06 20:47 | 43.56503 | -116.21818 | 2881 ft | 3 kts | 293° |
| 2026-05-06 20:48 | 43.56522 | -116.21875 | 2881 ft | 11 kts | 294° |
| 2026-05-06 20:48 | 43.56566 | -116.22003 | 2881 ft | 18 kts | 295° |
| 2026-05-06 20:48 | 43.56630 | -116.22195 | 2881 ft | 25 kts | 295° |
| 2026-05-06 20:48 | 43.56709 | -116.22431 | 2881 ft | 30 kts | 294° |
| 2026-05-06 20:49 | 43.56803 | -116.22698 | 2881 ft | 31 kts | 295° |
| 2026-05-06 20:49 | 43.56892 | -116.22961 | 2881 ft | 31 kts | 295° |
| 2026-05-06 20:49 | 43.56981 | -116.23230 | 2880 ft | 30 kts | 295° |
| 2026-05-06 20:49 | 43.57075 | -116.23492 | 2882 ft | 30 kts | 297° |
| 2026-05-06 20:50 | 43.57106 | -116.23753 | 2882 ft | 28 kts | 264° |
| 2026-05-06 20:50 | 43.57073 | -116.24021 | 2882 ft | 28 kts | 256° |
| 2026-05-06 20:50 | 43.57007 | -116.24196 | 2882 ft | 16 kts | 182° |
| 2026-05-06 20:50 | 43.56942 | -116.24084 | 2884 ft | 18 kts | 115° |
| 2026-05-06 20:51 | 43.56815 | -116.23711 | 2884 ft | 79 kts | 115° |
| 2026-05-06 20:51 | 43.56484 | -116.22744 | 2888 ft | 141 kts | 115° |
| 2026-05-06 20:51 | 43.55998 | -116.21338 | 3084 ft | 171 kts | 117° |
| 2026-05-06 20:51 | 43.55541 | -116.19802 | 3762 ft | 174 kts | 99° |
| 2026-05-06 20:52 | 43.55741 | -116.18184 | 4443 ft | 176 kts | 57° |
| 2026-05-06 20:52 | 43.56699 | -116.17042 | 4828 ft | 197 kts | 19° |
| 2026-05-06 20:52 | 43.58114 | -116.16804 | 5165 ft | 220 kts | 349° |
| 2026-05-06 20:52 | 43.59562 | -116.17740 | 5490 ft | 240 kts | 319° |
| 2026-05-06 20:53 | 43.60862 | -116.19364 | 5948 ft | 262 kts | 319° |
| 2026-05-06 20:53 | 43.62346 | -116.20912 | 6725 ft | 269 kts | 322° |
| 2026-05-06 20:53 | 43.63862 | -116.22442 | 7625 ft | 270 kts | 323° |
| 2026-05-06 20:53 | 43.65385 | -116.23987 | 8522 ft | 272 kts | 323° |
| 2026-05-06 20:54 | 43.66892 | -116.25520 | 9483 ft | 272 kts | 323° |
| 2026-05-06 20:54 | 43.68426 | -116.27083 | 10292 ft | 280 kts | 323° |
| 2026-05-06 20:54 | 43.70056 | -116.28751 | 10550 ft | 303 kts | 323° |
| 2026-05-06 20:54 | 43.71812 | -116.30547 | 10836 ft | 322 kts | 323° |
| 2026-05-06 20:55 | 43.73644 | -116.32416 | 11443 ft | 330 kts | 323° |
| 2026-05-06 20:55 | 43.75509 | -116.34315 | 12147 ft | 334 kts | 323° |
| 2026-05-06 20:55 | 43.77360 | -116.36201 | 12916 ft | 336 kts | 323° |
| 2026-05-06 20:55 | 43.79254 | -116.38134 | 13653 ft | 339 kts | 324° |
| 2026-05-06 20:56 | 43.81153 | -116.40079 | 14317 ft | 342 kts | 324° |
| 2026-05-06 20:56 | 43.83073 | -116.42046 | 14949 ft | 344 kts | 324° |
| 2026-05-06 20:56 | 43.85011 | -116.44030 | 15590 ft | 347 kts | 324° |
| 2026-05-06 20:56 | 43.86957 | -116.46024 | 16245 ft | 349 kts | 324° |
| 2026-05-06 20:57 | 43.88914 | -116.48027 | 16891 ft | 351 kts | 324° |
| 2026-05-06 20:57 | 43.90888 | -116.50050 | 17530 ft | 353 kts | 324° |
| 2026-05-06 20:57 | 43.92868 | -116.52084 | 18156 ft | 355 kts | 324° |
| 2026-05-06 20:57 | 43.94832 | -116.54106 | 18729 ft | 357 kts | 324° |
| 2026-05-06 20:58 | 43.96845 | -116.56172 | 19260 ft | 360 kts | 324° |
| 2026-05-06 20:58 | 43.98870 | -116.58253 | 19815 ft | 362 kts | 324° |
| 2026-05-06 20:58 | 44.00915 | -116.60359 | 20348 ft | 366 kts | 324° |
| 2026-05-06 20:58 | 44.02939 | -116.62449 | 20858 ft | 369 kts | 324° |
| 2026-05-06 20:59 | 44.05007 | -116.64593 | 21371 ft | 372 kts | 324° |
| 2026-05-06 20:59 | 44.07095 | -116.66757 | 21866 ft | 375 kts | 324° |
| 2026-05-06 20:59 | 44.09198 | -116.68940 | 22368 ft | 378 kts | 324° |
| 2026-05-06 20:59 | 44.11289 | -116.71114 | 22858 ft | 380 kts | 324° |
| 2026-05-06 21:00 | 44.13453 | -116.73258 | 23307 ft | 383 kts | 326° |
| 2026-05-06 21:00 | 44.15667 | -116.75337 | 23743 ft | 386 kts | 326° |
| 2026-05-06 21:00 | 44.17857 | -116.77522 | 24110 ft | 388 kts | 322° |
| 2026-05-06 21:00 | 44.19974 | -116.79881 | 24498 ft | 390 kts | 321° |
| 2026-05-06 21:01 | 44.22097 | -116.82278 | 24875 ft | 392 kts | 321° |
| 2026-05-06 21:01 | 44.24217 | -116.84698 | 25245 ft | 394 kts | 321° |
| 2026-05-06 21:01 | 44.26338 | -116.87138 | 25603 ft | 396 kts | 321° |
| 2026-05-06 21:01 | 44.28461 | -116.89595 | 25956 ft | 398 kts | 321° |
| 2026-05-06 21:02 | 44.30598 | -116.92073 | 26312 ft | 400 kts | 321° |
| 2026-05-06 21:02 | 44.32740 | -116.94560 | 26661 ft | 401 kts | 320° |
| 2026-05-06 21:02 | 44.34891 | -116.97052 | 26992 ft | 403 kts | 320° |
| 2026-05-06 21:02 | 44.37032 | -116.99527 | 27303 ft | 405 kts | 321° |
| 2026-05-06 21:03 | 44.39210 | -117.02041 | 27624 ft | 406 kts | 321° |
| 2026-05-06 21:03 | 44.41378 | -117.04547 | 27928 ft | 408 kts | 320° |
| 2026-05-06 21:03 | 44.43583 | -117.07105 | 28249 ft | 409 kts | 320° |
| 2026-05-06 21:03 | 44.45042 | -117.08800 | 28464 ft | 410 kts | 320° |
| 2026-05-06 21:04 | 44.47971 | -117.12212 | 28852 ft | 413 kts | 320° |
| 2026-05-06 21:04 | 44.49451 | -117.13938 | 29033 ft | 414 kts | 320° |
| 2026-05-06 21:04 | 44.52405 | -117.17384 | 29410 ft | 416 kts | 320° |
| 2026-05-06 21:04 | 44.53882 | -117.19110 | 29596 ft | 417 kts | 320° |
| 2026-05-06 21:05 | 44.56852 | -117.22582 | 29997 ft | 419 kts | 320° |
| 2026-05-06 21:05 | 44.58374 | -117.24365 | 30207 ft | 420 kts | 320° |
| 2026-05-06 21:05 | 44.60583 | -117.26953 | 30474 ft | 419 kts | 320° |
| 2026-05-06 21:05 | 44.62816 | -117.29569 | 30785 ft | 418 kts | 320° |
| 2026-05-06 21:06 | 44.65050 | -117.32186 | 31104 ft | 416 kts | 320° |
| 2026-05-06 21:06 | 44.67275 | -117.34796 | 31390 ft | 415 kts | 320° |
| 2026-05-06 21:06 | 44.69472 | -117.37376 | 31699 ft | 414 kts | 320° |
| 2026-05-06 21:06 | 44.71689 | -117.39981 | 32020 ft | 413 kts | 320° |
| 2026-05-06 21:07 | 44.73893 | -117.42575 | 32343 ft | 412 kts | 320° |
| 2026-05-06 21:07 | 44.76091 | -117.45161 | 32652 ft | 411 kts | 320° |
| 2026-05-06 21:07 | 44.78265 | -117.47722 | 32958 ft | 410 kts | 320° |
| 2026-05-06 21:07 | 44.80432 | -117.50283 | 33271 ft | 408 kts | 320° |
| 2026-05-06 21:08 | 44.82615 | -117.52867 | 33614 ft | 406 kts | 320° |
| 2026-05-06 21:08 | 44.84778 | -117.55434 | 33943 ft | 405 kts | 320° |
| 2026-05-06 21:08 | 44.86915 | -117.57968 | 34080 ft | 404 kts | 320° |
| 2026-05-06 21:09 | 44.91226 | -117.63082 | 34100 ft | 402 kts | 320° |
| 2026-05-06 21:09 | 44.95484 | -117.68137 | 34104 ft | 402 kts | 320° |
| 2026-05-06 21:10 | 44.99743 | -117.73203 | 34094 ft | 400 kts | 321° |
| 2026-05-06 21:10 | 45.04010 | -117.78295 | 34068 ft | 399 kts | 320° |
| 2026-05-06 21:11 | 45.08233 | -117.83356 | 34061 ft | 399 kts | 320° |
| 2026-05-06 21:11 | 45.12477 | -117.88443 | 34057 ft | 399 kts | 320° |
| 2026-05-06 21:12 | 45.16606 | -117.93701 | 34052 ft | 400 kts | 313° |
| 2026-05-06 21:12 | 45.20027 | -117.99953 | 34056 ft | 401 kts | 309° |
| 2026-05-06 21:13 | 45.23412 | -118.06244 | 34048 ft | 401 kts | 310° |
| 2026-05-06 21:13 | 45.26779 | -118.12504 | 34042 ft | 401 kts | 310° |
| 2026-05-06 21:14 | 45.30162 | -118.18811 | 34046 ft | 401 kts | 310° |
| 2026-05-06 21:14 | 45.33539 | -118.25124 | 34051 ft | 401 kts | 310° |
| 2026-05-06 21:15 | 45.36918 | -118.31453 | 34056 ft | 401 kts | 309° |
| 2026-05-06 21:15 | 45.40294 | -118.37786 | 34059 ft | 402 kts | 309° |
| 2026-05-06 21:16 | 45.43649 | -118.44094 | 34063 ft | 401 kts | 309° |
| 2026-05-06 21:16 | 45.47017 | -118.50446 | 34063 ft | 401 kts | 309° |
| 2026-05-06 21:17 | 45.50367 | -118.56792 | 34049 ft | 400 kts | 309° |
| 2026-05-06 21:17 | 45.53715 | -118.63126 | 34038 ft | 399 kts | 309° |
| 2026-05-06 21:18 | 45.57039 | -118.69421 | 34020 ft | 399 kts | 308° |
| 2026-05-06 21:18 | 45.60376 | -118.75769 | 34017 ft | 399 kts | 308° |
| 2026-05-06 21:19 | 45.63697 | -118.82109 | 34020 ft | 399 kts | 308° |
| 2026-05-06 21:19 | 45.67014 | -118.88455 | 34018 ft | 398 kts | 308° |
| 2026-05-06 21:20 | 45.70337 | -118.94793 | 34013 ft | 398 kts | 309° |
| 2026-05-06 21:20 | 45.73864 | -119.00887 | 33969 ft | 397 kts | 311° |
| 2026-05-06 21:21 | 45.77500 | -119.06851 | 33987 ft | 397 kts | 311° |
| 2026-05-06 21:21 | 45.81115 | -119.12854 | 33992 ft | 398 kts | 311° |
| 2026-05-06 21:22 | 45.84673 | -119.18864 | 33975 ft | 398 kts | 310° |
| 2026-05-06 21:22 | 45.88242 | -119.24953 | 33979 ft | 399 kts | 310° |
| 2026-05-06 21:23 | 45.91807 | -119.31046 | 33987 ft | 398 kts | 310° |
| 2026-05-06 21:23 | 45.95378 | -119.37128 | 33983 ft | 398 kts | 310° |
| 2026-05-06 21:24 | 45.98950 | -119.43221 | 33973 ft | 398 kts | 310° |
| 2026-05-06 21:24 | 46.02522 | -119.49330 | 33965 ft | 398 kts | 310° |
| 2026-05-06 21:25 | 46.06080 | -119.55451 | 33949 ft | 399 kts | 310° |
| 2026-05-06 21:25 | 46.09636 | -119.61575 | 33943 ft | 398 kts | 310° |
| 2026-05-06 21:26 | 46.13190 | -119.67701 | 33938 ft | 398 kts | 309° |
| 2026-05-06 21:26 | 46.16735 | -119.73835 | 33930 ft | 398 kts | 309° |
| 2026-05-06 21:27 | 46.20276 | -119.79973 | 33925 ft | 398 kts | 309° |
| 2026-05-06 21:27 | 46.23819 | -119.86121 | 33907 ft | 398 kts | 309° |
| 2026-05-06 21:28 | 46.27335 | -119.92242 | 33902 ft | 398 kts | 309° |
| 2026-05-06 21:28 | 46.30881 | -119.98427 | 33909 ft | 398 kts | 309° |
| 2026-05-06 21:29 | 46.34415 | -120.04605 | 33899 ft | 399 kts | 309° |
| 2026-05-06 21:29 | 46.37953 | -120.10796 | 33901 ft | 399 kts | 309° |
| 2026-05-06 21:30 | 46.41487 | -120.17000 | 33914 ft | 399 kts | 309° |
| 2026-05-06 21:30 | 46.44995 | -120.23166 | 33925 ft | 399 kts | 309° |
| 2026-05-06 21:31 | 46.48532 | -120.29393 | 33943 ft | 399 kts | 309° |
| 2026-05-06 21:31 | 46.52055 | -120.35618 | 33956 ft | 399 kts | 309° |
| 2026-05-06 21:32 | 46.55567 | -120.41855 | 33967 ft | 399 kts | 309° |
| 2026-05-06 21:32 | 46.60549 | -120.51466 | 33951 ft | 398 kts | 304° |
| 2026-05-06 21:33 | 46.63644 | -120.58161 | 33979 ft | 398 kts | 304° |
| 2026-05-06 21:33 | 46.66755 | -120.64823 | 33982 ft | 396 kts | 304° |
| 2026-05-06 21:34 | 46.69886 | -120.71418 | 33984 ft | 395 kts | 305° |
| 2026-05-06 21:34 | 46.73018 | -120.77986 | 33983 ft | 394 kts | 304° |
| 2026-05-06 21:35 | 46.76117 | -120.84525 | 33992 ft | 394 kts | 304° |
| 2026-05-06 21:35 | 46.79224 | -120.91114 | 33990 ft | 394 kts | 304° |
| 2026-05-06 21:36 | 46.82333 | -120.97719 | 34032 ft | 395 kts | 304° |
| 2026-05-06 21:36 | 46.85448 | -121.04335 | 34032 ft | 395 kts | 304° |
| 2026-05-06 21:37 | 46.88551 | -121.10958 | 34031 ft | 395 kts | 304° |
| 2026-05-06 21:37 | 46.91631 | -121.17549 | 34036 ft | 395 kts | 304° |
| 2026-05-06 21:38 | 46.94735 | -121.24196 | 34046 ft | 395 kts | 304° |
| 2026-05-06 21:38 | 46.97837 | -121.30848 | 34066 ft | 395 kts | 304° |
| 2026-05-06 21:39 | 47.00932 | -121.37513 | 34084 ft | 394 kts | 304° |
| 2026-05-06 21:39 | 47.02463 | -121.40818 | 33463 ft | 389 kts | 304° |
| 2026-05-06 21:39 | 47.03972 | -121.44085 | 31771 ft | 397 kts | 303° |
| 2026-05-06 21:40 | 47.05537 | -121.47476 | 30025 ft | 405 kts | 303° |
| 2026-05-06 21:40 | 47.07127 | -121.50914 | 28194 ft | 410 kts | 303° |
| 2026-05-06 21:40 | 47.08749 | -121.54416 | 26745 ft | 408 kts | 303° |
| 2026-05-06 21:40 | 47.10331 | -121.57794 | 25527 ft | 403 kts | 303° |
| 2026-05-06 21:41 | 47.11916 | -121.61146 | 24569 ft | 394 kts | 304° |
| 2026-05-06 21:41 | 47.13431 | -121.64333 | 24374 ft | 366 kts | 303° |
| 2026-05-06 21:41 | 47.14837 | -121.67298 | 24255 ft | 341 kts | 303° |
| 2026-05-06 21:41 | 47.16136 | -121.70053 | 24156 ft | 316 kts | 303° |
| 2026-05-06 21:42 | 47.17350 | -121.72632 | 23898 ft | 299 kts | 303° |
| 2026-05-06 21:42 | 47.18519 | -121.75119 | 23338 ft | 292 kts | 303° |
| 2026-05-06 21:42 | 47.19670 | -121.77571 | 22539 ft | 290 kts | 302° |
| 2026-05-06 21:42 | 47.20806 | -121.80002 | 21895 ft | 286 kts | 302° |
| 2026-05-06 21:43 | 47.21930 | -121.82392 | 21365 ft | 284 kts | 303° |
| 2026-05-06 21:43 | 47.23083 | -121.84732 | 20856 ft | 286 kts | 302° |
| 2026-05-06 21:43 | 47.24200 | -121.87113 | 20620 ft | 280 kts | 301° |
| 2026-05-06 21:43 | 47.25291 | -121.89482 | 20317 ft | 277 kts | 301° |
| 2026-05-06 21:44 | 47.26368 | -121.91833 | 19990 ft | 276 kts | 301° |
| 2026-05-06 21:44 | 47.27439 | -121.94169 | 19673 ft | 275 kts | 301° |
| 2026-05-06 21:44 | 47.28496 | -121.96459 | 19347 ft | 273 kts | 301° |
| 2026-05-06 21:44 | 47.29566 | -121.98764 | 19028 ft | 272 kts | 301° |
| 2026-05-06 21:45 | 47.30634 | -122.01062 | 18707 ft | 271 kts | 301° |
| 2026-05-06 21:45 | 47.31697 | -122.03345 | 18371 ft | 270 kts | 301° |
| 2026-05-06 21:45 | 47.32758 | -122.05625 | 18011 ft | 269 kts | 301° |
| 2026-05-06 21:45 | 47.33813 | -122.07895 | 17673 ft | 267 kts | 301° |
| 2026-05-06 21:46 | 47.34861 | -122.10151 | 17344 ft | 266 kts | 301° |
| 2026-05-06 21:46 | 47.35902 | -122.12396 | 17035 ft | 265 kts | 301° |
| 2026-05-06 21:46 | 47.36939 | -122.14636 | 16699 ft | 264 kts | 301° |
| 2026-05-06 21:46 | 47.37969 | -122.16863 | 16320 ft | 261 kts | 301° |
| 2026-05-06 21:47 | 47.38988 | -122.19071 | 15759 ft | 260 kts | 301° |
| 2026-05-06 21:47 | 47.40003 | -122.21272 | 15218 ft | 258 kts | 301° |
| 2026-05-06 21:47 | 47.41002 | -122.23434 | 14725 ft | 257 kts | 301° |
| 2026-05-06 21:47 | 47.42017 | -122.25636 | 14198 ft | 255 kts | 301° |
| 2026-05-06 21:48 | 47.43009 | -122.27794 | 13642 ft | 253 kts | 301° |
| 2026-05-06 21:48 | 47.43985 | -122.29918 | 13082 ft | 252 kts | 301° |
| 2026-05-06 21:48 | 47.44969 | -122.32059 | 12520 ft | 251 kts | 302° |
| 2026-05-06 21:48 | 47.45939 | -122.34163 | 11776 ft | 245 kts | 302° |
| 2026-05-06 21:49 | 47.46878 | -122.36205 | 11110 ft | 237 kts | 302° |
| 2026-05-06 21:49 | 47.47632 | -122.38359 | 10472 ft | 237 kts | 281° |
| 2026-05-06 21:49 | 47.47597 | -122.40783 | 9797 ft | 240 kts | 259° |
| 2026-05-06 21:49 | 47.47320 | -122.43227 | 9094 ft | 242 kts | 264° |
| 2026-05-06 21:50 | 47.47123 | -122.45721 | 8402 ft | 244 kts | 265° |
| 2026-05-06 21:50 | 47.46939 | -122.48224 | 7731 ft | 246 kts | 265° |
| 2026-05-06 21:50 | 47.46763 | -122.50717 | 7076 ft | 247 kts | 265° |
| 2026-05-06 21:50 | 47.46599 | -122.53248 | 6401 ft | 247 kts | 269° |
| 2026-05-06 21:51 | 47.46952 | -122.55680 | 5829 ft | 240 kts | 301° |
| 2026-05-06 21:51 | 47.48041 | -122.57420 | 5667 ft | 230 kts | 325° |
| 2026-05-06 21:51 | 47.49535 | -122.58275 | 5605 ft | 235 kts | 351° |
| 2026-05-06 21:51 | 47.51168 | -122.58047 | 5535 ft | 241 kts | 18° |
| 2026-05-06 21:52 | 47.52569 | -122.56703 | 5494 ft | 243 kts | 46° |
| 2026-05-06 21:52 | 47.53453 | -122.54558 | 5433 ft | 244 kts | 64° |
| 2026-05-06 21:52 | 47.54150 | -122.52350 | 5378 ft | 230 kts | 64° |
| 2026-05-06 21:52 | 47.54819 | -122.50227 | 5334 ft | 232 kts | 63° |
| 2026-05-06 21:53 | 47.55276 | -122.48784 | 5303 ft | 235 kts | 63° |
| 2026-05-06 21:53 | 47.56565 | -122.46263 | 5197 ft | 232 kts | 36° |
| 2026-05-06 21:53 | 47.57925 | -122.45062 | 4943 ft | 226 kts | 21° |
| 2026-05-06 21:53 | 47.58872 | -122.44336 | 4710 ft | 228 kts | 33° |
| 2026-05-06 21:54 | 47.60308 | -122.42119 | 4291 ft | 223 kts | 60° |
| 2026-05-06 21:54 | 47.60736 | -122.40722 | 4084 ft | 218 kts | 75° |
| 2026-05-06 21:54 | 47.60961 | -122.38563 | 3808 ft | 207 kts | 94° |
| 2026-05-06 21:54 | 47.60754 | -122.36568 | 3557 ft | 192 kts | 111° |
| 2026-05-06 21:55 | 47.60199 | -122.34819 | 3284 ft | 184 kts | 127° |
| 2026-05-06 21:55 | 47.59380 | -122.33422 | 3027 ft | 177 kts | 142° |
| 2026-05-06 21:55 | 47.58372 | -122.32423 | 2804 ft | 172 kts | 158° |
| 2026-05-06 21:55 | 47.57257 | -122.31850 | 2574 ft | 168 kts | 171° |
| 2026-05-06 21:56 | 47.56119 | -122.31703 | 2353 ft | 164 kts | 182° |
| 2026-05-06 21:56 | 47.54972 | -122.31723 | 2120 ft | 164 kts | 182° |
| 2026-05-06 21:56 | 47.53860 | -122.31734 | 1874 ft | 152 kts | 182° |
| 2026-05-06 21:56 | 47.52845 | -122.31741 | 1697 ft | 141 kts | 184° |
| 2026-05-06 21:57 | 47.51890 | -122.31749 | 1506 ft | 134 kts | 184° |
| 2026-05-06 21:57 | 47.50944 | -122.31753 | 1341 ft | 135 kts | 183° |
| 2026-05-06 21:57 | 47.50000 | -122.31771 | 1176 ft | 134 kts | 185° |
| 2026-05-06 21:57 | 47.49046 | -122.31786 | 967 ft | 139 kts | 181° |
| 2026-05-06 21:58 | 47.48063 | -122.31782 | 830 ft | 142 kts | 183° |
| 2026-05-06 21:58 | 47.47081 | -122.31786 | 580 ft | 141 kts | 183° |
| 2026-05-06 21:58 | 47.46097 | -122.31789 | 413 ft | 139 kts | 183° |
| 2026-05-06 21:58 | 47.45199 | -122.31796 | 391 ft | 111 kts | 181° |
| 2026-05-06 21:59 | 47.44719 | -122.31790 | 394 ft | 37 kts | 171° |
| 2026-05-06 21:59 | 47.44492 | -122.31662 | 394 ft | 35 kts | 150° |
| 2026-05-06 21:59 | 47.44299 | -122.31497 | 394 ft | 20 kts | 141° |
| 2026-05-06 21:59 | 47.44231 | -122.31320 | 394 ft | 21 kts | 109° |
| 2026-05-06 22:00 | 47.44170 | -122.31133 | 394 ft | 20 kts | 133° |
| 2026-05-06 22:00 | 47.44053 | -122.31009 | 394 ft | 22 kts | 150° |
| 2026-05-06 22:00 | 47.43922 | -122.30874 | 394 ft | 23 kts | 123° |
| 2026-05-06 22:00 | 47.43906 | -122.30678 | 394 ft | 12 kts | 72° |
| 2026-05-06 22:01 | 47.43973 | -122.30636 | 394 ft | 10 kts | 4° |
| 2026-05-06 22:01 | 47.44042 | -122.30636 | 394 ft | 9 kts | 0° |
| 2026-05-06 22:01 | 47.44082 | -122.30636 | 394 ft | 0 kts | 0° |
| 2026-05-06 22:02 | 47.44073 | -122.30636 | 394 ft | 0 kts | 0° |
| 2026-05-06 22:02 | 47.44120 | -122.30635 | 394 ft | 0 kts | 0° |
| 2026-05-06 22:05 | 47.44153 | -122.30636 | 394 ft | 15 kts | 360° |
| 2026-05-06 22:05 | 47.44241 | -122.30636 | 394 ft | 5 kts | 360° |
| 2026-05-06 22:06 | 47.44322 | -122.30631 | 394 ft | 9 kts | 22° |
| 2026-05-06 22:06 | 47.44345 | -122.30571 | 394 ft | 8 kts | 110° |
| 2026-05-06 22:06 | 47.44308 | -122.30537 | 394 ft | 7 kts | 160° |
| 2026-05-06 22:06 | 47.44276 | -122.30494 | 394 ft | 7 kts | 133° |
| 2026-05-06 22:07 | 47.44252 | -122.30455 | 394 ft | 0 kts | 130° |